sensor_id;sensor_type;location;lat;lon;timestamp;P1;durP1;ratioP1;P2;durP2;ratioP2
38972;SDS011;25333;50.762;4.470;2023-04-03T00:01:28;5.17;;;3.93;;
38972;SDS011;25333;50.762;4.470;2023-04-03T00:03:54;5.38;;;4.20;;
38972;SDS011;25333;50.762;4.470;2023-04-03T00:06:19;7.65;;;4.45;;
38972;SDS011;25333;50.762;4.470;2023-04-03T00:08:45;6.15;;;3.72;;
38972;SDS011;25333;50.762;4.470;2023-04-03T00:11:11;6.60;;;4.45;;
38972;SDS011;25333;50.762;4.470;2023-04-03T00:13:37;6.67;;;4.23;;
38972;SDS011;25333;50.762;4.470;2023-04-03T00:16:03;6.70;;;4.63;;
38972;SDS011;25333;50.762;4.470;2023-04-03T00:18:29;5.55;;;4.22;;
38972;SDS011;25333;50.762;4.470;2023-04-03T00:20:54;5.47;;;3.67;;
38972;SDS011;25333;50.762;4.470;2023-04-03T00:23:20;6.70;;;4.20;;
38972;SDS011;25333;50.762;4.470;2023-04-03T00:25:48;4.83;;;3.77;;
38972;SDS011;25333;50.762;4.470;2023-04-03T00:28:14;7.30;;;4.38;;
38972;SDS011;25333;50.762;4.470;2023-04-03T00:30:40;5.93;;;4.45;;
38972;SDS011;25333;50.762;4.470;2023-04-03T00:33:06;6.47;;;4.67;;
38972;SDS011;25333;50.762;4.470;2023-04-03T00:35:31;6.43;;;4.67;;
38972;SDS011;25333;50.762;4.470;2023-04-03T00:37:59;6.20;;;4.38;;
38972;SDS011;25333;50.762;4.470;2023-04-03T00:40:26;5.88;;;4.07;;
38972;SDS011;25333;50.762;4.470;2023-04-03T00:42:55;5.82;;;4.60;;
38972;SDS011;25333;50.762;4.470;2023-04-03T00:45:24;6.45;;;3.95;;
38972;SDS011;25333;50.762;4.470;2023-04-03T00:47:53;9.15;;;4.78;;
38972;SDS011;25333;50.762;4.470;2023-04-03T00:50:20;6.43;;;4.35;;
38972;SDS011;25333;50.762;4.470;2023-04-03T00:52:46;6.10;;;4.38;;
38972;SDS011;25333;50.762;4.470;2023-04-03T00:55:14;6.35;;;4.05;;
38972;SDS011;25333;50.762;4.470;2023-04-03T00:57:41;5.65;;;4.60;;
38972;SDS011;25333;50.762;4.470;2023-04-03T01:00:10;6.20;;;4.87;;
38972;SDS011;25333;50.762;4.470;2023-04-03T01:02:39;6.18;;;4.93;;
38972;SDS011;25333;50.762;4.470;2023-04-03T01:05:06;9.80;;;4.68;;
38972;SDS011;25333;50.762;4.470;2023-04-03T01:07:32;6.93;;;4.20;;
38972;SDS011;25333;50.762;4.470;2023-04-03T01:10:00;7.68;;;5.05;;
38972;SDS011;25333;50.762;4.470;2023-04-03T01:12:31;5.70;;;4.25;;
38972;SDS011;25333;50.762;4.470;2023-04-03T01:15:05;6.40;;;4.88;;
38972;SDS011;25333;50.762;4.470;2023-04-03T01:17:43;5.82;;;4.60;;
38972;SDS011;25333;50.762;4.470;2023-04-03T01:25:46;6.07;;;4.68;;
38972;SDS011;25333;50.762;4.470;2023-04-03T01:28:14;7.15;;;4.63;;
38972;SDS011;25333;50.762;4.470;2023-04-03T01:30:47;7.68;;;5.28;;
38972;SDS011;25333;50.762;4.470;2023-04-03T01:33:16;6.57;;;4.40;;
38972;SDS011;25333;50.762;4.470;2023-04-03T01:35:42;7.93;;;5.07;;
38972;SDS011;25333;50.762;4.470;2023-04-03T01:38:08;6.93;;;4.80;;
38972;SDS011;25333;50.762;4.470;2023-04-03T01:40:33;6.00;;;4.00;;
38972;SDS011;25333;50.762;4.470;2023-04-03T01:42:59;6.55;;;4.55;;
38972;SDS011;25333;50.762;4.470;2023-04-03T01:45:25;6.30;;;3.90;;
38972;SDS011;25333;50.762;4.470;2023-04-03T01:47:50;7.43;;;5.23;;
38972;SDS011;25333;50.762;4.470;2023-04-03T01:50:16;5.00;;;3.70;;
38972;SDS011;25333;50.762;4.470;2023-04-03T01:52:42;5.45;;;4.55;;
38972;SDS011;25333;50.762;4.470;2023-04-03T01:55:07;7.10;;;5.18;;
38972;SDS011;25333;50.762;4.470;2023-04-03T01:57:33;6.47;;;4.70;;
38972;SDS011;25333;50.762;4.470;2023-04-03T01:59:59;9.27;;;5.33;;
38972;SDS011;25333;50.762;4.470;2023-04-03T02:02:24;7.10;;;5.83;;
38972;SDS011;25333;50.762;4.470;2023-04-03T02:04:50;7.37;;;4.40;;
38972;SDS011;25333;50.762;4.470;2023-04-03T02:07:16;5.85;;;4.53;;
38972;SDS011;25333;50.762;4.470;2023-04-03T02:09:41;8.30;;;4.93;;
38972;SDS011;25333;50.762;4.470;2023-04-03T02:12:07;7.37;;;5.27;;
38972;SDS011;25333;50.762;4.470;2023-04-03T02:14:33;6.30;;;4.78;;
38972;SDS011;25333;50.762;4.470;2023-04-03T02:17:00;5.43;;;4.90;;
38972;SDS011;25333;50.762;4.470;2023-04-03T02:19:29;9.23;;;5.10;;
38972;SDS011;25333;50.762;4.470;2023-04-03T02:21:56;6.05;;;5.03;;
38972;SDS011;25333;50.762;4.470;2023-04-03T02:24:21;6.40;;;5.20;;
38972;SDS011;25333;50.762;4.470;2023-04-03T02:26:47;8.17;;;4.73;;
38972;SDS011;25333;50.762;4.470;2023-04-03T02:29:12;8.25;;;5.13;;
38972;SDS011;25333;50.762;4.470;2023-04-03T02:31:38;7.55;;;5.13;;
38972;SDS011;25333;50.762;4.470;2023-04-03T02:34:04;6.20;;;4.57;;
38972;SDS011;25333;50.762;4.470;2023-04-03T02:36:30;7.07;;;5.22;;
38972;SDS011;25333;50.762;4.470;2023-04-03T02:38:56;8.02;;;5.90;;
38972;SDS011;25333;50.762;4.470;2023-04-03T02:41:21;7.53;;;4.97;;
38972;SDS011;25333;50.762;4.470;2023-04-03T02:43:47;7.13;;;5.33;;
38972;SDS011;25333;50.762;4.470;2023-04-03T02:46:13;6.20;;;4.30;;
38972;SDS011;25333;50.762;4.470;2023-04-03T02:48:40;6.22;;;5.05;;
38972;SDS011;25333;50.762;4.470;2023-04-03T02:51:06;7.00;;;4.80;;
38972;SDS011;25333;50.762;4.470;2023-04-03T02:53:31;7.10;;;5.13;;
38972;SDS011;25333;50.762;4.470;2023-04-03T02:55:57;9.03;;;4.87;;
38972;SDS011;25333;50.762;4.470;2023-04-03T02:58:23;6.70;;;5.20;;
38972;SDS011;25333;50.762;4.470;2023-04-03T03:00:48;6.90;;;5.32;;
38972;SDS011;25333;50.762;4.470;2023-04-03T03:03:14;4.97;;;4.38;;
38972;SDS011;25333;50.762;4.470;2023-04-03T03:05:40;5.45;;;4.05;;
38972;SDS011;25333;50.762;4.470;2023-04-03T03:08:05;6.30;;;4.50;;
38972;SDS011;25333;50.762;4.470;2023-04-03T03:10:31;7.30;;;4.18;;
38972;SDS011;25333;50.762;4.470;2023-04-03T03:12:57;5.68;;;4.35;;
38972;SDS011;25333;50.762;4.470;2023-04-03T03:15:22;5.33;;;4.20;;
38972;SDS011;25333;50.762;4.470;2023-04-03T03:17:48;5.87;;;4.07;;
38972;SDS011;25333;50.762;4.470;2023-04-03T03:20:13;7.25;;;4.35;;
38972;SDS011;25333;50.762;4.470;2023-04-03T03:22:40;6.20;;;4.95;;
38972;SDS011;25333;50.762;4.470;2023-04-03T03:25:06;8.40;;;4.93;;
38972;SDS011;25333;50.762;4.470;2023-04-03T03:27:32;5.47;;;3.53;;
38972;SDS011;25333;50.762;4.470;2023-04-03T03:29:58;5.13;;;3.70;;
38972;SDS011;25333;50.762;4.470;2023-04-03T03:32:23;5.13;;;3.90;;
38972;SDS011;25333;50.762;4.470;2023-04-03T03:34:49;5.77;;;3.87;;
38972;SDS011;25333;50.762;4.470;2023-04-03T03:37:15;6.93;;;3.90;;
38972;SDS011;25333;50.762;4.470;2023-04-03T03:39:40;4.85;;;4.32;;
38972;SDS011;25333;50.762;4.470;2023-04-03T03:42:06;4.60;;;3.73;;
38972;SDS011;25333;50.762;4.470;2023-04-03T03:44:31;6.77;;;4.53;;
38972;SDS011;25333;50.762;4.470;2023-04-03T03:46:57;7.10;;;4.57;;
38972;SDS011;25333;50.762;4.470;2023-04-03T03:49:22;6.90;;;4.75;;
38972;SDS011;25333;50.762;4.470;2023-04-03T03:51:48;5.43;;;4.70;;
38972;SDS011;25333;50.762;4.470;2023-04-03T03:54:14;6.00;;;4.20;;
38972;SDS011;25333;50.762;4.470;2023-04-03T03:56:40;5.93;;;4.95;;
38972;SDS011;25333;50.762;4.470;2023-04-03T03:59:06;6.77;;;4.37;;
38972;SDS011;25333;50.762;4.470;2023-04-03T04:01:31;5.27;;;3.90;;
38972;SDS011;25333;50.762;4.470;2023-04-03T04:03:57;5.00;;;4.45;;
38972;SDS011;25333;50.762;4.470;2023-04-03T04:06:23;7.03;;;4.40;;
38972;SDS011;25333;50.762;4.470;2023-04-03T04:08:48;7.15;;;4.18;;
38972;SDS011;25333;50.762;4.470;2023-04-03T04:11:14;6.07;;;4.57;;
38972;SDS011;25333;50.762;4.470;2023-04-03T04:13:40;5.70;;;4.70;;
38972;SDS011;25333;50.762;4.470;2023-04-03T04:16:06;6.93;;;5.33;;
38972;SDS011;25333;50.762;4.470;2023-04-03T04:18:32;6.05;;;4.47;;
38972;SDS011;25333;50.762;4.470;2023-04-03T04:20:58;4.68;;;4.05;;
38972;SDS011;25333;50.762;4.470;2023-04-03T04:23:24;6.30;;;4.75;;
38972;SDS011;25333;50.762;4.470;2023-04-03T04:25:49;5.90;;;4.75;;
38972;SDS011;25333;50.762;4.470;2023-04-03T04:28:15;6.50;;;4.57;;
38972;SDS011;25333;50.762;4.470;2023-04-03T04:30:41;6.30;;;4.78;;
38972;SDS011;25333;50.762;4.470;2023-04-03T04:33:07;6.97;;;4.57;;
38972;SDS011;25333;50.762;4.470;2023-04-03T04:35:33;7.72;;;4.55;;
38972;SDS011;25333;50.762;4.470;2023-04-03T04:37:58;7.22;;;5.40;;
38972;SDS011;25333;50.762;4.470;2023-04-03T04:40:25;5.72;;;4.43;;
38972;SDS011;25333;50.762;4.470;2023-04-03T04:42:51;7.27;;;4.43;;
38972;SDS011;25333;50.762;4.470;2023-04-03T04:45:16;6.97;;;5.57;;
38972;SDS011;25333;50.762;4.470;2023-04-03T04:47:42;6.27;;;5.33;;
38972;SDS011;25333;50.762;4.470;2023-04-03T04:50:08;6.97;;;4.83;;
38972;SDS011;25333;50.762;4.470;2023-04-03T04:52:36;5.75;;;4.70;;
38972;SDS011;25333;50.762;4.470;2023-04-03T04:55:03;7.80;;;4.80;;
38972;SDS011;25333;50.762;4.470;2023-04-03T04:57:31;5.28;;;3.72;;
38972;SDS011;25333;50.762;4.470;2023-04-03T05:00:02;7.72;;;5.38;;
38972;SDS011;25333;50.762;4.470;2023-04-03T05:02:40;7.07;;;5.95;;
38972;SDS011;25333;50.762;4.470;2023-04-03T05:05:08;11.10;;;6.32;;
38972;SDS011;25333;50.762;4.470;2023-04-03T05:10:15;7.43;;;6.68;;
38972;SDS011;25333;50.762;4.470;2023-04-03T05:12:44;8.00;;;6.70;;
38972;SDS011;25333;50.762;4.470;2023-04-03T05:15:10;11.43;;;6.03;;
38972;SDS011;25333;50.762;4.470;2023-04-03T05:17:37;8.40;;;6.43;;
38972;SDS011;25333;50.762;4.470;2023-04-03T05:20:03;8.60;;;6.47;;
38972;SDS011;25333;50.762;4.470;2023-04-03T05:22:29;8.63;;;6.38;;
38972;SDS011;25333;50.762;4.470;2023-04-03T05:24:57;7.07;;;5.70;;
38972;SDS011;25333;50.762;4.470;2023-04-03T05:27:22;7.20;;;5.65;;
38972;SDS011;25333;50.762;4.470;2023-04-03T05:29:49;7.47;;;6.53;;
38972;SDS011;25333;50.762;4.470;2023-04-03T05:32:15;7.35;;;5.57;;
38972;SDS011;25333;50.762;4.470;2023-04-03T05:34:41;8.75;;;5.97;;
38972;SDS011;25333;50.762;4.470;2023-04-03T05:37:12;7.65;;;5.03;;
38972;SDS011;25333;50.762;4.470;2023-04-03T05:39:39;8.43;;;5.35;;
38972;SDS011;25333;50.762;4.470;2023-04-03T05:42:06;11.10;;;6.05;;
38972;SDS011;25333;50.762;4.470;2023-04-03T05:44:32;7.53;;;5.43;;
38972;SDS011;25333;50.762;4.470;2023-04-03T05:46:58;7.27;;;5.80;;
38972;SDS011;25333;50.762;4.470;2023-04-03T05:49:24;7.10;;;5.07;;
38972;SDS011;25333;50.762;4.470;2023-04-03T05:51:50;6.40;;;5.10;;
38972;SDS011;25333;50.762;4.470;2023-04-03T05:54:24;6.82;;;5.35;;
38972;SDS011;25333;50.762;4.470;2023-04-03T05:56:51;7.13;;;5.10;;
38972;SDS011;25333;50.762;4.470;2023-04-03T05:59:17;6.97;;;5.78;;
38972;SDS011;25333;50.762;4.470;2023-04-03T06:01:43;7.80;;;5.43;;
38972;SDS011;25333;50.762;4.470;2023-04-03T06:04:09;8.32;;;5.93;;
38972;SDS011;25333;50.762;4.470;2023-04-03T06:06:45;6.88;;;5.38;;
38972;SDS011;25333;50.762;4.470;2023-04-03T06:09:22;9.65;;;5.95;;
38972;SDS011;25333;50.762;4.470;2023-04-03T06:11:49;7.93;;;5.90;;
38972;SDS011;25333;50.762;4.470;2023-04-03T06:14:15;7.38;;;6.32;;
38972;SDS011;25333;50.762;4.470;2023-04-03T06:16:40;6.93;;;6.17;;
38972;SDS011;25333;50.762;4.470;2023-04-03T06:19:07;9.63;;;6.90;;
38972;SDS011;25333;50.762;4.470;2023-04-03T06:21:33;9.88;;;6.55;;
38972;SDS011;25333;50.762;4.470;2023-04-03T06:24:00;12.18;;;8.40;;
38972;SDS011;25333;50.762;4.470;2023-04-03T06:26:27;11.90;;;9.43;;
38972;SDS011;25333;50.762;4.470;2023-04-03T06:28:53;13.75;;;10.68;;
38972;SDS011;25333;50.762;4.470;2023-04-03T06:31:19;15.83;;;10.53;;
38972;SDS011;25333;50.762;4.470;2023-04-03T06:33:44;15.57;;;9.93;;
38972;SDS011;25333;50.762;4.470;2023-04-03T06:36:10;15.57;;;11.17;;
38972;SDS011;25333;50.762;4.470;2023-04-03T06:38:37;12.13;;;10.55;;
38972;SDS011;25333;50.762;4.470;2023-04-03T06:41:03;16.33;;;11.38;;
38972;SDS011;25333;50.762;4.470;2023-04-03T06:43:28;14.63;;;10.70;;
38972;SDS011;25333;50.762;4.470;2023-04-03T06:45:56;12.45;;;10.75;;
38972;SDS011;25333;50.762;4.470;2023-04-03T06:48:22;14.77;;;11.17;;
38972;SDS011;25333;50.762;4.470;2023-04-03T06:50:48;14.60;;;10.45;;
38972;SDS011;25333;50.762;4.470;2023-04-03T06:53:13;13.50;;;10.50;;
38972;SDS011;25333;50.762;4.470;2023-04-03T06:55:39;15.27;;;11.65;;
38972;SDS011;25333;50.762;4.470;2023-04-03T06:58:06;15.52;;;11.02;;
38972;SDS011;25333;50.762;4.470;2023-04-03T07:00:32;13.70;;;10.98;;
38972;SDS011;25333;50.762;4.470;2023-04-03T07:02:58;14.10;;;10.85;;
38972;SDS011;25333;50.762;4.470;2023-04-03T07:05:24;12.00;;;9.60;;
38972;SDS011;25333;50.762;4.470;2023-04-03T07:07:49;15.05;;;11.38;;
38972;SDS011;25333;50.762;4.470;2023-04-03T07:10:16;12.98;;;10.90;;
38972;SDS011;25333;50.762;4.470;2023-04-03T07:12:42;13.13;;;10.63;;
38972;SDS011;25333;50.762;4.470;2023-04-03T07:15:08;11.77;;;10.10;;
38972;SDS011;25333;50.762;4.470;2023-04-03T07:17:34;12.10;;;9.88;;
38972;SDS011;25333;50.762;4.470;2023-04-03T07:20:02;14.25;;;11.20;;
38972;SDS011;25333;50.762;4.470;2023-04-03T07:22:29;13.77;;;10.05;;
38972;SDS011;25333;50.762;4.470;2023-04-03T07:24:57;11.32;;;9.98;;
38972;SDS011;25333;50.762;4.470;2023-04-03T07:27:30;13.57;;;10.15;;
38972;SDS011;25333;50.762;4.470;2023-04-03T07:29:58;11.20;;;9.27;;
38972;SDS011;25333;50.762;4.470;2023-04-03T07:32:24;13.07;;;10.52;;
38972;SDS011;25333;50.762;4.470;2023-04-03T07:34:49;12.95;;;10.18;;
38972;SDS011;25333;50.762;4.470;2023-04-03T07:37:16;12.48;;;10.63;;
38972;SDS011;25333;50.762;4.470;2023-04-03T07:39:45;12.30;;;10.32;;
38972;SDS011;25333;50.762;4.470;2023-04-03T07:42:11;11.07;;;9.55;;
38972;SDS011;25333;50.762;4.470;2023-04-03T07:44:40;10.35;;;8.30;;
38972;SDS011;25333;50.762;4.470;2023-04-03T07:47:06;15.57;;;9.77;;
38972;SDS011;25333;50.762;4.470;2023-04-03T07:49:31;13.18;;;9.57;;
38972;SDS011;25333;50.762;4.470;2023-04-03T07:51:57;9.65;;;8.65;;
38972;SDS011;25333;50.762;4.470;2023-04-03T07:54:23;10.73;;;8.02;;
38972;SDS011;25333;50.762;4.470;2023-04-03T07:56:49;10.47;;;8.23;;
38972;SDS011;25333;50.762;4.470;2023-04-03T07:59:15;9.52;;;7.70;;
38972;SDS011;25333;50.762;4.470;2023-04-03T08:01:40;9.87;;;8.20;;
38972;SDS011;25333;50.762;4.470;2023-04-03T08:04:06;8.07;;;6.70;;
38972;SDS011;25333;50.762;4.470;2023-04-03T08:06:31;8.82;;;6.57;;
38972;SDS011;25333;50.762;4.470;2023-04-03T08:09:02;7.32;;;6.57;;
38972;SDS011;25333;50.762;4.470;2023-04-03T08:11:29;8.85;;;7.15;;
38972;SDS011;25333;50.762;4.470;2023-04-03T08:13:55;7.93;;;6.15;;
38972;SDS011;25333;50.762;4.470;2023-04-03T08:16:22;8.80;;;7.17;;
38972;SDS011;25333;50.762;4.470;2023-04-03T08:18:50;7.72;;;6.28;;
38972;SDS011;25333;50.762;4.470;2023-04-03T08:21:16;10.30;;;6.15;;
38972;SDS011;25333;50.762;4.470;2023-04-03T08:23:41;9.00;;;5.63;;
38972;SDS011;25333;50.762;4.470;2023-04-03T08:26:10;7.63;;;6.23;;
38972;SDS011;25333;50.762;4.470;2023-04-03T08:28:39;6.78;;;4.90;;
38972;SDS011;25333;50.762;4.470;2023-04-03T08:31:06;7.35;;;5.90;;
38972;SDS011;25333;50.762;4.470;2023-04-03T08:33:38;9.25;;;6.13;;
38972;SDS011;25333;50.762;4.470;2023-04-03T08:36:05;8.77;;;6.60;;
38972;SDS011;25333;50.762;4.470;2023-04-03T08:38:33;8.48;;;6.78;;
38972;SDS011;25333;50.762;4.470;2023-04-03T08:41:04;12.15;;;7.13;;
38972;SDS011;25333;50.762;4.470;2023-04-03T08:46:19;6.32;;;5.38;;
38972;SDS011;25333;50.762;4.470;2023-04-03T08:48:48;7.70;;;5.78;;
38972;SDS011;25333;50.762;4.470;2023-04-03T08:51:17;8.52;;;5.53;;
38972;SDS011;25333;50.762;4.470;2023-04-03T08:53:49;4.85;;;3.95;;
38972;SDS011;25333;50.762;4.470;2023-04-03T08:56:19;7.10;;;4.93;;
38972;SDS011;25333;50.762;4.470;2023-04-03T08:58:48;7.75;;;3.38;;
38972;SDS011;25333;50.762;4.470;2023-04-03T09:01:21;3.95;;;3.28;;
38972;SDS011;25333;50.762;4.470;2023-04-03T09:03:54;6.05;;;3.10;;
38972;SDS011;25333;50.762;4.470;2023-04-03T09:06:25;3.60;;;2.60;;
38972;SDS011;25333;50.762;4.470;2023-04-03T09:09:14;5.50;;;2.72;;
38972;SDS011;25333;50.762;4.470;2023-04-03T09:11:51;5.05;;;3.15;;
38972;SDS011;25333;50.762;4.470;2023-04-03T09:19:52;5.68;;;2.47;;
38972;SDS011;25333;50.762;4.470;2023-04-03T09:22:23;6.07;;;2.20;;
38972;SDS011;25333;50.762;4.470;2023-04-03T09:25:01;5.82;;;1.83;;
38972;SDS011;25333;50.762;4.470;2023-04-03T09:27:47;4.10;;;2.03;;
38972;SDS011;25333;50.762;4.470;2023-04-03T09:30:16;3.72;;;2.17;;
38972;SDS011;25333;50.762;4.470;2023-04-03T09:32:45;4.85;;;1.60;;
38972;SDS011;25333;50.762;4.470;2023-04-03T09:38:01;2.13;;;1.10;;
38972;SDS011;25333;50.762;4.470;2023-04-03T09:42:56;2.42;;;1.10;;
38972;SDS011;25333;50.762;4.470;2023-04-03T09:45:30;8.02;;;2.33;;
38972;SDS011;25333;50.762;4.470;2023-04-03T09:50:30;2.88;;;1.38;;
38972;SDS011;25333;50.762;4.470;2023-04-03T09:52:55;3.05;;;1.50;;
38972;SDS011;25333;50.762;4.470;2023-04-03T09:55:22;2.00;;;1.17;;
38972;SDS011;25333;50.762;4.470;2023-04-03T09:57:58;4.72;;;1.15;;
38972;SDS011;25333;50.762;4.470;2023-04-03T10:00:27;3.43;;;1.37;;
38972;SDS011;25333;50.762;4.470;2023-04-03T10:02:57;2.83;;;1.08;;
38972;SDS011;25333;50.762;4.470;2023-04-03T10:05:28;4.40;;;1.58;;
38972;SDS011;25333;50.762;4.470;2023-04-03T10:08:07;4.35;;;1.67;;
38972;SDS011;25333;50.762;4.470;2023-04-03T10:10:47;4.35;;;1.88;;
38972;SDS011;25333;50.762;4.470;2023-04-03T10:13:29;3.95;;;1.70;;
38972;SDS011;25333;50.762;4.470;2023-04-03T10:16:01;4.55;;;1.33;;
38972;SDS011;25333;50.762;4.470;2023-04-03T10:24:11;4.35;;;1.58;;
38972;SDS011;25333;50.762;4.470;2023-04-03T10:35:25;5.45;;;1.75;;
38972;SDS011;25333;50.762;4.470;2023-04-03T10:38:15;2.28;;;1.08;;
38972;SDS011;25333;50.762;4.470;2023-04-03T10:45:49;2.70;;;1.33;;
38972;SDS011;25333;50.762;4.470;2023-04-03T10:48:34;3.78;;;1.45;;
38972;SDS011;25333;50.762;4.470;2023-04-03T10:51:22;3.22;;;1.65;;
38972;SDS011;25333;50.762;4.470;2023-04-03T10:54:12;2.50;;;1.00;;
38972;SDS011;25333;50.762;4.470;2023-04-03T10:59:25;2.50;;;1.10;;
38972;SDS011;25333;50.762;4.470;2023-04-03T11:01:53;4.00;;;1.30;;
38972;SDS011;25333;50.762;4.470;2023-04-03T11:04:33;3.15;;;1.17;;
38972;SDS011;25333;50.762;4.470;2023-04-03T11:07:16;2.17;;;1.08;;
38972;SDS011;25333;50.762;4.470;2023-04-03T11:09:46;1.83;;;0.70;;
38972;SDS011;25333;50.762;4.470;2023-04-03T11:14:50;4.40;;;1.15;;
38972;SDS011;25333;50.762;4.470;2023-04-03T11:22:50;3.05;;;0.90;;
38972;SDS011;25333;50.762;4.470;2023-04-03T11:25:24;2.47;;;0.98;;
38972;SDS011;25333;50.762;4.470;2023-04-03T11:27:54;3.90;;;0.93;;
38972;SDS011;25333;50.762;4.470;2023-04-03T11:36:01;6.18;;;1.60;;
38972;SDS011;25333;50.762;4.470;2023-04-03T11:39:02;3.40;;;1.17;;
38972;SDS011;25333;50.762;4.470;2023-04-03T11:41:46;2.13;;;0.85;;
38972;SDS011;25333;50.762;4.470;2023-04-03T11:44:28;3.15;;;0.85;;
38972;SDS011;25333;50.762;4.470;2023-04-03T11:47:02;4.20;;;1.10;;
38972;SDS011;25333;50.762;4.470;2023-04-03T12:11:23;2.60;;;0.85;;
38972;SDS011;25333;50.762;4.470;2023-04-03T12:19:04;2.35;;;0.88;;
38972;SDS011;25333;50.762;4.470;2023-04-03T12:26:46;3.25;;;1.05;;
38972;SDS011;25333;50.762;4.470;2023-04-03T12:34:53;3.30;;;1.00;;
38972;SDS011;25333;50.762;4.470;2023-04-03T12:40:50;3.20;;;1.10;;
38972;SDS011;25333;50.762;4.470;2023-04-03T12:48:33;1.38;;;0.63;;
38972;SDS011;25333;50.762;4.470;2023-04-03T12:51:17;3.40;;;0.70;;
38972;SDS011;25333;50.762;4.470;2023-04-03T12:53:46;2.33;;;0.77;;
38972;SDS011;25333;50.762;4.470;2023-04-03T12:56:32;2.25;;;0.70;;
38972;SDS011;25333;50.762;4.470;2023-04-03T12:59:16;2.05;;;0.77;;
38972;SDS011;25333;50.762;4.470;2023-04-03T13:01:53;3.00;;;0.98;;
38972;SDS011;25333;50.762;4.470;2023-04-03T13:04:30;4.18;;;0.98;;
38972;SDS011;25333;50.762;4.470;2023-04-03T13:06:56;1.00;;;0.40;;
38972;SDS011;25333;50.762;4.470;2023-04-03T13:09:24;1.20;;;0.70;;
38972;SDS011;25333;50.762;4.470;2023-04-03T13:12:00;3.10;;;0.60;;
38972;SDS011;25333;50.762;4.470;2023-04-03T13:14:29;2.28;;;0.52;;
38972;SDS011;25333;50.762;4.470;2023-04-03T13:16:56;2.13;;;0.87;;
38972;SDS011;25333;50.762;4.470;2023-04-03T13:19:23;2.38;;;0.50;;
38972;SDS011;25333;50.762;4.470;2023-04-03T13:21:51;2.88;;;0.40;;
38972;SDS011;25333;50.762;4.470;2023-04-03T13:24:26;1.38;;;0.60;;
38972;SDS011;25333;50.762;4.470;2023-04-03T13:26:54;2.40;;;0.68;;
38972;SDS011;25333;50.762;4.470;2023-04-03T13:29:25;1.77;;;0.50;;
38972;SDS011;25333;50.762;4.470;2023-04-03T13:31:57;2.00;;;0.30;;
38972;SDS011;25333;50.762;4.470;2023-04-03T13:34:26;0.65;;;0.30;;
38972;SDS011;25333;50.762;4.470;2023-04-03T13:36:57;1.83;;;0.30;;
38972;SDS011;25333;50.762;4.470;2023-04-03T13:39:26;0.80;;;0.10;;
38972;SDS011;25333;50.762;4.470;2023-04-03T13:41:55;1.60;;;0.40;;
38972;SDS011;25333;50.762;4.470;2023-04-03T13:46:59;2.80;;;0.40;;
38972;SDS011;25333;50.762;4.470;2023-04-03T13:50:31;2.10;;;0.50;;
38972;SDS011;25333;50.762;4.470;2023-04-03T13:52:52;1.27;;;0.43;;
38972;SDS011;25333;50.762;4.470;2023-04-03T13:55:26;1.07;;;0.60;;
38972;SDS011;25333;50.762;4.470;2023-04-03T14:00:35;2.23;;;0.60;;
38972;SDS011;25333;50.762;4.470;2023-04-03T14:03:03;3.20;;;0.90;;
38972;SDS011;25333;50.762;4.470;2023-04-03T14:05:37;5.05;;;0.80;;
38972;SDS011;25333;50.762;4.470;2023-04-03T14:08:03;1.80;;;0.40;;
38972;SDS011;25333;50.762;4.470;2023-04-03T14:10:29;2.08;;;0.70;;
38972;SDS011;25333;50.762;4.470;2023-04-03T14:12:55;2.83;;;0.88;;
38972;SDS011;25333;50.762;4.470;2023-04-03T14:15:26;2.00;;;0.60;;
38972;SDS011;25333;50.762;4.470;2023-04-03T14:17:56;1.40;;;0.43;;
38972;SDS011;25333;50.762;4.470;2023-04-03T14:20:22;3.10;;;0.60;;
38972;SDS011;25333;50.762;4.470;2023-04-03T14:22:50;2.25;;;0.57;;
38972;SDS011;25333;50.762;4.470;2023-04-03T14:25:18;1.70;;;0.40;;
38972;SDS011;25333;50.762;4.470;2023-04-03T14:27:45;4.57;;;0.68;;
38972;SDS011;25333;50.762;4.470;2023-04-03T14:30:15;2.28;;;0.57;;
38972;SDS011;25333;50.762;4.470;2023-04-03T14:32:44;3.40;;;0.82;;
38972;SDS011;25333;50.762;4.470;2023-04-03T14:35:09;1.25;;;0.60;;
38972;SDS011;25333;50.762;4.470;2023-04-03T14:37:35;1.80;;;0.60;;
38972;SDS011;25333;50.762;4.470;2023-04-03T14:40:02;1.35;;;0.65;;
38972;SDS011;25333;50.762;4.470;2023-04-03T14:42:31;2.35;;;0.55;;
38972;SDS011;25333;50.762;4.470;2023-04-03T14:45:03;2.05;;;0.70;;
38972;SDS011;25333;50.762;4.470;2023-04-03T14:47:31;2.40;;;0.60;;
38972;SDS011;25333;50.762;4.470;2023-04-03T14:50:01;2.60;;;0.80;;
38972;SDS011;25333;50.762;4.470;2023-04-03T14:52:32;2.05;;;0.52;;
38972;SDS011;25333;50.762;4.470;2023-04-03T14:55:00;2.85;;;0.82;;
38972;SDS011;25333;50.762;4.470;2023-04-03T14:57:27;1.98;;;0.77;;
38972;SDS011;25333;50.762;4.470;2023-04-03T14:59:54;1.67;;;0.60;;
38972;SDS011;25333;50.762;4.470;2023-04-03T15:02:30;2.58;;;0.55;;
38972;SDS011;25333;50.762;4.470;2023-04-03T15:05:04;1.40;;;0.40;;
38972;SDS011;25333;50.762;4.470;2023-04-03T15:07:53;2.10;;;0.65;;
38972;SDS011;25333;50.762;4.470;2023-04-03T15:10:20;1.17;;;0.50;;
38972;SDS011;25333;50.762;4.470;2023-04-03T15:12:48;2.00;;;0.50;;
38972;SDS011;25333;50.762;4.470;2023-04-03T15:15:15;2.50;;;0.85;;
38972;SDS011;25333;50.762;4.470;2023-04-03T15:17:42;2.13;;;0.90;;
38972;SDS011;25333;50.762;4.470;2023-04-03T15:20:13;3.85;;;0.88;;
38972;SDS011;25333;50.762;4.470;2023-04-03T15:22:40;1.88;;;0.47;;
38972;SDS011;25333;50.762;4.470;2023-04-03T15:25:06;1.70;;;0.60;;
38972;SDS011;25333;50.762;4.470;2023-04-03T15:27:32;2.42;;;0.90;;
38972;SDS011;25333;50.762;4.470;2023-04-03T15:29:58;2.00;;;0.85;;
38972;SDS011;25333;50.762;4.470;2023-04-03T15:32:23;2.00;;;0.77;;
38972;SDS011;25333;50.762;4.470;2023-04-03T15:34:49;2.65;;;0.80;;
38972;SDS011;25333;50.762;4.470;2023-04-03T15:37:15;3.17;;;0.97;;
38972;SDS011;25333;50.762;4.470;2023-04-03T15:39:40;2.40;;;0.80;;
38972;SDS011;25333;50.762;4.470;2023-04-03T15:42:06;2.87;;;0.60;;
38972;SDS011;25333;50.762;4.470;2023-04-03T15:44:32;1.60;;;0.68;;
38972;SDS011;25333;50.762;4.470;2023-04-03T15:46:58;2.78;;;0.80;;
38972;SDS011;25333;50.762;4.470;2023-04-03T15:49:25;3.05;;;0.68;;
38972;SDS011;25333;50.762;4.470;2023-04-03T15:51:51;4.03;;;1.15;;
38972;SDS011;25333;50.762;4.470;2023-04-03T15:54:17;2.47;;;0.90;;
38972;SDS011;25333;50.762;4.470;2023-04-03T15:56:43;2.50;;;1.00;;
38972;SDS011;25333;50.762;4.470;2023-04-03T15:59:11;2.78;;;0.90;;
38972;SDS011;25333;50.762;4.470;2023-04-03T16:01:37;2.45;;;0.68;;
38972;SDS011;25333;50.762;4.470;2023-04-03T16:04:04;2.55;;;0.93;;
38972;SDS011;25333;50.762;4.470;2023-04-03T16:06:32;3.65;;;0.90;;
38972;SDS011;25333;50.762;4.470;2023-04-03T16:08:58;4.35;;;0.90;;
38972;SDS011;25333;50.762;4.470;2023-04-03T16:11:25;2.60;;;0.60;;
38972;SDS011;25333;50.762;4.470;2023-04-03T16:13:52;2.08;;;0.80;;
38972;SDS011;25333;50.762;4.470;2023-04-03T16:16:18;3.97;;;1.30;;
38972;SDS011;25333;50.762;4.470;2023-04-03T16:18:44;3.05;;;1.00;;
38972;SDS011;25333;50.762;4.470;2023-04-03T16:21:12;2.58;;;1.17;;
38972;SDS011;25333;50.762;4.470;2023-04-03T16:23:39;2.38;;;1.00;;
38972;SDS011;25333;50.762;4.470;2023-04-03T16:26:06;2.70;;;0.88;;
38972;SDS011;25333;50.762;4.470;2023-04-03T16:28:32;2.78;;;0.80;;
38972;SDS011;25333;50.762;4.470;2023-04-03T16:30:57;3.50;;;0.90;;
38972;SDS011;25333;50.762;4.470;2023-04-03T16:33:24;4.35;;;1.02;;
38972;SDS011;25333;50.762;4.470;2023-04-03T16:35:50;3.47;;;0.97;;
38972;SDS011;25333;50.762;4.470;2023-04-03T16:38:16;2.78;;;0.75;;
38972;SDS011;25333;50.762;4.470;2023-04-03T16:40:43;3.80;;;1.23;;
38972;SDS011;25333;50.762;4.470;2023-04-03T16:43:10;4.68;;;1.13;;
38972;SDS011;25333;50.762;4.470;2023-04-03T16:45:36;3.67;;;1.03;;